Time;durP1;ratioP1;P1;durP2;ratioP2;P2;SDS_P1;SDS_P2;PMS_P1;PMS_P2;Temp;Humidity;BMP_temperature;BMP_pressure;BME280_temperature;BME280_humidity;BME280_pressure;Samples;Min_cycle;Max_cycle;Signal;HPM_P1;HPM_P2
2023/08/22 00:00:45;;;;;;;;;3.25;1.50;;;;;25.98;42.74;101616.09;5037226;28;45431;-61
2023/08/22 00:03:11;;;;;;;;;1.75;1.75;;;;;25.86;42.95;101620.25;5037410;28;45450;-61
2023/08/22 00:05:37;;;;;;;;;2.50;1.25;;;;;25.74;43.42;101613.63;5053487;28;45628;-63
2023/08/22 00:08:05;;;;;;;;;2.50;2.00;;;;;25.70;43.13;101600.41;5038907;28;45628;-61
2023/08/22 00:10:34;;;;;;;;;1.25;1.25;;;;;25.73;43.38;101603.84;5037275;28;45457;-60
2023/08/22 00:12:59;;;;;;;;;1.75;1.75;;;;;25.72;43.59;101583.34;5037182;28;46064;-61
2023/08/22 00:15:25;;;;;;;;;1.00;1.00;;;;;25.88;43.19;101612.13;5029951;28;45410;-62
2023/08/22 00:17:51;;;;;;;;;3.00;1.25;;;;;25.79;43.35;101600.88;5034114;28;45384;-61
2023/08/22 00:20:17;;;;;;;;;1.50;1.00;;;;;25.78;43.42;101598.25;5037158;28;45473;-61
2023/08/22 00:22:43;;;;;;;;;2.00;2.00;;;;;25.87;43.39;101610.41;5019701;28;45484;-62
2023/08/22 00:25:10;;;;;;;;;2.00;2.00;;;;;25.81;43.56;101596.28;5036237;28;45503;-64
2023/08/22 00:27:36;;;;;;;;;1.50;1.50;;;;;25.82;43.24;101591.81;5037002;28;45540;-64
2023/08/22 00:30:03;;;;;;;;;2.00;2.00;;;;;25.74;43.47;101597.50;5036973;28;45364;-68
2023/08/22 00:32:29;;;;;;;;;1.00;1.00;;;;;25.57;43.65;101595.63;5037832;28;46535;-61
2023/08/22 00:34:55;;;;;;;;;2.75;2.00;;;;;25.60;43.75;101600.88;5038196;28;45392;-61
2023/08/22 00:37:20;;;;;;;;;1.00;0.75;;;;;25.54;43.54;101586.88;5037211;28;45493;-61
2023/08/22 00:39:46;;;;;;;;;2.00;1.25;;;;;25.47;43.85;101585.44;5037103;28;45463;-61
2023/08/22 00:42:11;;;;;;;;;1.00;1.00;;;;;25.52;43.84;101594.13;5036903;28;46181;-61
2023/08/22 00:44:37;;;;;;;;;2.00;2.00;;;;;25.64;43.63;101604.28;5036561;28;45434;-62
2023/08/22 00:47:04;;;;;;;;;2.00;1.00;;;;;25.59;44.03;101598.25;5037436;28;45526;-61
2023/08/22 00:49:30;;;;;;;;;1.00;1.00;;;;;25.44;44.18;101575.72;5037185;28;45379;-62
2023/08/22 00:51:58;;;;;;;;;4.00;2.00;;;;;25.56;44.25;101596.59;5036083;28;45624;-61
2023/08/22 00:54:26;;;;;;;;;2.00;2.00;;;;;25.50;43.65;101579.91;5036509;28;45500;-64
2023/08/22 00:56:53;;;;;;;;;1.00;1.00;;;;;25.52;43.57;101578.91;5037749;28;45489;-60
2023/08/22 00:59:19;;;;;;;;;4.75;2.00;;;;;25.54;43.98;101586.88;5036637;28;45441;-62
2023/08/22 01:01:45;;;;;;;;;3.00;1.00;;;;;25.55;43.80;101591.28;5036356;28;45503;-61
2023/08/22 01:04:10;;;;;;;;;2.00;1.25;;;;;25.52;44.02;101588.78;5036386;28;45481;-61
2023/08/22 01:06:46;;;;;;;;;1.00;1.00;;;;;25.27;44.17;101568.47;5036215;28;45776;-62
2023/08/22 01:09:34;;;;;;;;;0.25;0.25;;;;;25.29;44.80;101581.78;5019217;28;45471;-63
2023/08/22 01:12:16;;;;;;;;;2.00;0.75;;;;;25.34;44.71;101586.00;5035020;28;47271;-61
2023/08/22 01:14:49;;;;;;;;;1.00;1.00;;;;;25.46;44.15;101572.94;5037045;28;45302;-60
2023/08/22 01:17:15;;;;;;;;;2.00;2.00;;;;;25.60;44.07;101584.78;5031438;28;45495;-62
2023/08/22 01:19:41;;;;;;;;;2.00;2.00;;;;;25.54;44.56;101586.88;5037162;28;45511;-62
2023/08/22 01:22:07;;;;;;;;;1.75;1.75;;;;;25.43;44.32;101582.00;5035960;28;45509;-62
2023/08/22 01:24:32;;;;;;;;;1.00;1.00;;;;;25.38;44.51;101582.22;5036095;28;45521;-61
2023/08/22 01:26:58;;;;;;;;;1.00;1.00;;;;;25.37;44.22;101569.78;5039221;28;45375;-61
2023/08/22 01:29:32;;;;;;;;;2.25;2.25;;;;;25.32;44.54;101568.25;5039713;28;45387;-63
2023/08/22 01:32:23;;;;;;;;;0.75;0.75;;;;;25.23;45.28;101566.88;5038909;28;46426;-62
2023/08/22 01:34:54;;;;;;;;;1.25;1.25;;;;;25.06;45.48;101569.44;5039496;28;45450;-61
2023/08/22 01:37:23;;;;;;;;;1.25;1.25;;;;;24.92;45.69;101552.16;5039553;28;45235;-61
2023/08/22 01:39:55;;;;;;;;;2.00;2.00;;;;;24.97;45.88;101576.94;5039543;28;45461;-60
2023/08/22 01:42:25;;;;;;;;;0.00;0.00;;;;;24.90;45.69;101553.16;5039492;28;45432;-62
2023/08/22 01:44:50;;;;;;;;;2.00;2.00;;;;;24.93;45.84;101551.19;5039666;28;45442;-63
2023/08/22 01:47:16;;;;;;;;;1.25;1.25;;;;;24.90;45.59;101554.03;5040017;28;45536;-60
2023/08/22 01:49:41;;;;;;;;;1.50;1.00;;;;;24.84;46.32;101556.97;5041787;28;45434;-62
2023/08/22 01:52:07;;;;;;;;;3.25;2.00;;;;;24.74;45.62;101550.28;5041266;28;45996;-61
2023/08/22 01:54:38;;;;;;;;;2.00;2.00;;;;;24.81;45.78;101557.13;5040991;28;45357;-63
2023/08/22 01:57:03;;;;;;;;;2.00;2.00;;;;;24.75;46.18;101549.38;5041856;28;45586;-73
2023/08/22 01:59:29;;;;;;;;;1.00;1.00;;;;;24.79;45.79;101534.88;5040264;28;45556;-68
2023/08/22 02:01:55;;;;;;;;;1.25;1.25;;;;;24.77;45.94;101539.44;5042274;28;45406;-76
2023/08/22 02:04:20;;;;;;;;;2.00;1.00;;;;;24.69;46.48;101542.44;5041110;28;45452;-72
2023/08/22 02:06:46;;;;;;;;;1.00;1.00;;;;;24.74;46.30;101535.09;5043193;28;45487;-77
2023/08/22 02:09:13;;;;;;;;;1.00;1.00;;;;;24.68;46.57;101527.34;5039652;28;45519;-62
2023/08/22 02:11:39;;;;;;;;;1.00;1.00;;;;;24.73;46.25;101535.16;5040356;28;46268;-62
2023/08/22 02:14:04;;;;;;;;;1.50;1.00;;;;;24.69;46.38;101525.53;5039921;28;45247;-62
2023/08/22 02:16:30;;;;;;;;;0.50;0.50;;;;;24.73;45.93;101535.16;5038882;28;45348;-61
2023/08/22 02:18:55;;;;;;;;;1.75;1.75;;;;;24.69;46.45;101537.09;5039355;28;45434;-60
2023/08/22 02:21:21;;;;;;;;;2.50;2.00;;;;;24.71;46.24;101545.94;5038463;28;45443;-61
2023/08/22 02:23:46;;;;;;;;;1.00;1.00;;;;;24.62;46.17;101540.13;5038936;28;45252;-61
2023/08/22 02:26:12;;;;;;;;;2.00;1.50;;;;;24.60;46.29;101536.63;5039056;28;45468;-61
2023/08/22 02:28:37;;;;;;;;;2.75;1.00;;;;;24.54;46.24;101525.25;5039080;28;45477;-61
2023/08/22 02:31:03;;;;;;;;;1.75;1.00;;;;;24.70;46.19;101544.22;5038239;28;45448;-62
2023/08/22 02:33:29;;;;;;;;;3.25;2.00;;;;;24.77;46.60;101547.47;5038887;28;45724;-62
2023/08/22 02:35:55;;;;;;;;;2.50;1.00;;;;;24.69;46.81;101528.19;5038848;28;45400;-61
2023/08/22 02:38:20;;;;;;;;;0.75;0.75;;;;;24.67;46.35;101535.44;5038171;28;45350;-62
2023/08/22 02:40:46;;;;;;;;;1.50;1.00;;;;;24.59;46.66;101535.78;5038808;28;45897;-61
2023/08/22 02:43:12;;;;;;;;;2.00;2.00;;;;;24.48;47.05;101528.19;5038233;28;45331;-67
2023/08/22 02:45:37;;;;;;;;;3.75;2.25;;;;;24.39;47.45;101525.88;5039485;28;45599;-63
2023/08/22 02:48:04;;;;;;;;;1.50;1.50;;;;;24.48;47.16;101524.66;5038954;28;45537;-62
2023/08/22 02:50:29;;;;;;;;;3.25;2.00;;;;;24.48;47.30;101524.66;5038529;28;45426;-61
2023/08/22 02:52:55;;;;;;;;;3.00;2.00;;;;;24.52;47.21;101527.13;5038269;28;45456;-61
2023/08/22 02:55:20;;;;;;;;;2.00;2.00;;;;;24.62;46.75;101516.03;5038488;28;45421;-63
2023/08/22 02:57:46;;;;;;;;;1.50;1.00;;;;;24.78;46.38;101521.56;5038598;28;45356;-63
2023/08/22 03:00:13;;;;;;;;;1.00;1.00;;;;;24.88;46.33;101521.06;5038355;28;45876;-64
2023/08/22 03:02:39;;;;;;;;;5.00;4.00;;;;;24.93;46.38;101520.84;5036753;28;45426;-64
2023/08/22 03:05:08;;;;;;;;;5.25;3.50;;;;;24.79;46.59;101526.84;5054620;28;45465;-62
2023/08/22 03:07:34;;;;;;;;;2.00;2.00;;;;;24.68;46.90;101521.97;5037997;28;45427;-62
2023/08/22 03:09:59;;;;;;;;;6.25;6.00;;;;;24.69;46.64;101521.03;5036699;28;46285;-63
2023/08/22 03:12:25;;;;;;;;;6.00;4.00;;;;;24.74;46.67;101529.72;5037219;28;45368;-63
2023/08/22 03:14:50;;;;;;;;;2.25;2.25;;;;;24.79;46.61;101529.50;5037372;28;46152;-62
2023/08/22 03:17:16;;;;;;;;;3.25;2.00;;;;;24.68;46.78;101524.66;5037218;28;45330;-64
2023/08/22 03:19:41;;;;;;;;;3.25;2.00;;;;;24.51;46.97;101524.50;5037376;28;46002;-62
2023/08/22 03:22:07;;;;;;;;;3.50;2.50;;;;;24.57;47.32;101526.06;5037176;28;45481;-63
2023/08/22 03:24:33;;;;;;;;;4.00;2.00;;;;;24.57;46.93;101524.25;5038160;28;45444;-62
2023/08/22 03:26:59;;;;;;;;;1.00;1.00;;;;;24.60;46.73;101521.44;5038324;28;45435;-62
2023/08/22 03:29:24;;;;;;;;;1.00;1.00;;;;;24.60;46.75;101518.75;5037945;28;45429;-62
2023/08/22 03:31:50;;;;;;;;;1.00;1.00;;;;;24.47;47.38;101509.53;5037855;28;45414;-69
2023/08/22 03:34:15;;;;;;;;;1.50;1.50;;;;;;;;5040326;28;45572;-64
2023/08/22 03:36:41;;;;;;;;;2.00;2.00;;;;;24.34;47.77;101512.72;5039754;28;46235;-63
2023/08/22 03:39:07;;;;;;;;;4.00;1.75;;;;;24.14;47.75;101477.91;5038765;28;46530;-62
2023/08/22 03:41:32;;;;;;;;;1.25;1.25;;;;;24.36;47.64;101523.34;5041529;28;45542;-64
2023/08/22 03:43:58;;;;;;;;;1.50;1.25;;;;;24.22;47.72;101525.75;5037493;28;45329;-68
2023/08/22 03:46:26;;;;;;;;;1.00;1.00;;;;;24.15;47.82;101505.53;5037848;28;45853;-63
2023/08/22 03:48:52;;;;;;;;;2.25;1.00;;;;;23.89;48.32;101478.06;5035791;28;46548;-62
2023/08/22 03:51:17;;;;;;;;;3.50;2.00;;;;;24.11;48.31;101526.22;5038370;28;45596;-71
2023/08/22 03:53:43;;;;;;;;;4.00;2.00;;;;;23.91;48.04;101465.50;5038771;28;45480;-70
2023/08/22 03:56:08;;;;;;;;;2.75;2.00;;;;;24.31;47.12;101517.31;5039012;28;45407;-69
2023/08/22 03:58:34;;;;;;;;;1.25;1.25;;;;;24.38;47.20;101534.88;5040122;28;45474;-65
2023/08/22 04:01:03;;;;;;;;;1.00;1.00;;;;;24.41;47.69;101526.69;5038648;28;45474;-63
2023/08/22 04:03:29;;;;;;;;;1.00;1.00;;;;;24.26;48.02;101522.00;5037655;28;45475;-61
2023/08/22 04:05:55;;;;;;;;;1.25;1.25;;;;;24.03;48.29;101507.78;5037661;28;45526;-70
2023/08/22 04:08:21;;;;;;;;;1.00;1.00;;;;;24.06;48.18;101515.72;5036735;28;45290;-67
2023/08/22 04:10:56;;;;;;;;;2.25;1.50;;;;;24.20;47.93;101511.56;5101228;27;45761;-60
2023/08/22 04:13:22;;;;;;;;;2.00;1.25;;;;;24.24;47.78;101524.75;5093517;27;45491;-66
2023/08/22 04:15:48;;;;;;;;;1.00;1.00;;;;;24.17;48.40;101530.44;5080632;27;45704;-78
2023/08/22 04:18:14;;;;;;;;;1.25;1.25;;;;;24.01;48.91;101528.38;5082085;27;45629;-75
2023/08/22 04:20:42;;;;;;;;;1.00;1.00;;;;;23.87;48.85;101520.94;5083436;27;46011;-69
2023/08/22 04:23:09;;;;;;;;;1.50;1.50;;;;;24.00;48.86;101541.84;5081223;27;45287;-60
2023/08/22 04:25:34;;;;;;;;;1.00;1.00;;;;;24.08;48.33;101531.69;5081359;27;45407;-66
2023/08/22 04:28:00;;;;;;;;;2.00;1.25;;;;;23.98;48.20;101517.81;5083813;27;45323;-71
2023/08/22 04:30:25;;;;;;;;;2.00;2.00;;;;;24.05;48.57;101526.47;5088887;27;45606;-62
2023/08/22 04:32:51;;;;;;;;;2.00;2.00;;;;;24.10;48.54;101529.81;5086365;27;45552;-62
2023/08/22 04:35:17;;;;;;;;;4.50;2.25;;;;;24.10;48.34;101508.41;5090850;27;45500;-62
2023/08/22 04:37:42;;;;;;;;;3.00;1.50;;;;;24.21;48.03;101534.72;5089678;27;45485;-63
2023/08/22 04:40:09;;;;;;;;;2.00;2.00;;;;;24.13;48.03;101518.97;5090784;27;45436;-62
2023/08/22 04:42:35;;;;;;;;;1.75;1.75;;;;;24.16;48.40;101529.56;5091283;27;45369;-60
2023/08/22 04:45:00;;;;;;;;;1.00;1.00;;;;;24.08;48.56;101520.97;5090436;27;45846;-62
2023/08/22 04:47:26;;;;;;;;;2.00;2.00;;;;;24.11;48.45;101531.56;5092028;27;45534;-61
2023/08/22 04:49:51;;;;;;;;;1.00;1.00;;;;;24.12;48.61;101523.47;5092466;27;45341;-62
2023/08/22 04:52:17;;;;;;;;;1.75;1.75;;;;;24.18;48.42;101510.75;5081757;27;46134;-63
2023/08/22 04:54:43;;;;;;;;;2.00;2.00;;;;;24.34;48.16;101530.56;5079429;27;45870;-62
2023/08/22 04:57:08;;;;;;;;;3.00;2.00;;;;;24.15;48.66;101540.31;5082621;27;46252;-63
2023/08/22 04:59:34;;;;;;;;;2.50;2.00;;;;;24.01;48.88;101528.38;5078732;27;45940;-63
2023/08/22 05:01:59;;;;;;;;;1.00;1.00;;;;;23.98;48.94;101525.84;5076009;27;45432;-62
2023/08/22 05:04:25;;;;;;;;;3.00;1.00;;;;;24.01;48.76;101538.22;5085683;27;45421;-63
2023/08/22 05:06:50;;;;;;;;;1.00;1.00;;;;;24.10;48.39;101538.69;5091995;27;45786;-65
2023/08/22 05:09:17;;;;;;;;;4.00;2.00;;;;;24.10;48.39;101541.38;5089528;27;45520;-62
2023/08/22 05:11:43;;;;;;;;;1.75;1.75;;;;;24.11;48.51;101539.59;5091873;27;45327;-61
2023/08/22 05:14:09;;;;;;;;;3.25;2.00;;;;;24.26;48.05;101533.59;5091909;27;45372;-63
2023/08/22 05:16:35;;;;;;;;;2.75;2.75;;;;;24.42;48.40;101540.97;5091895;27;45511;-62
2023/08/22 05:19:01;;;;;;;;;3.50;2.00;;;;;24.51;47.84;101543.25;5091002;27;46631;-62
2023/08/22 05:21:27;;;;;;;;;3.75;3.00;;;;;24.53;47.56;101525.31;5096281;27;45405;-61
2023/08/22 05:23:52;;;;;;;;;3.50;2.50;;;;;24.70;48.03;101543.31;5073440;27;45444;-61
2023/08/22 05:26:18;;;;;;;;;3.00;3.00;;;;;24.75;47.85;101541.34;5078774;27;45414;-63
2023/08/22 05:28:44;;;;;;;;;3.00;3.00;;;;;24.79;47.31;101539.38;5076949;27;45416;-64
2023/08/22 05:31:21;;;;;;;;;3.00;2.75;;;;;24.91;47.30;101547.72;5077499;27;45465;-63
2023/08/22 05:33:47;;;;;;;;;4.00;2.00;;;;;24.92;47.06;101541.44;5078418;27;45323;-61
2023/08/22 05:36:13;;;;;;;;;2.75;2.75;;;;;25.04;47.59;101555.22;5077064;27;45355;-61
2023/08/22 05:38:39;;;;;;;;;2.00;2.00;;;;;25.06;46.74;101551.53;5078203;27;46477;-61
2023/08/22 05:41:04;;;;;;;;;2.25;2.25;;;;;25.06;46.81;101554.22;5078417;27;45399;-62
2023/08/22 05:43:30;;;;;;;;;3.00;3.00;;;;;25.17;47.27;101572.47;5078260;27;45459;-61
2023/08/22 05:45:55;;;;;;;;;2.50;2.50;;;;;25.20;46.83;101577.75;5073850;27;45449;-61
2023/08/22 05:48:21;;;;;;;;;1.50;1.50;;;;;25.16;46.90;101557.34;5078076;27;45236;-60
2023/08/22 05:50:48;;;;;;;;;5.00;3.25;;;;;25.24;46.46;101552.50;5078657;27;45415;-61
2023/08/22 05:53:13;;;;;;;;;2.00;2.00;;;;;25.23;46.67;101545.41;5077467;27;45463;-61
2023/08/22 05:55:39;;;;;;;;;3.25;3.00;;;;;25.34;46.83;101563.66;5091044;27;45399;-62
2023/08/22 05:58:04;;;;;;;;;3.00;3.00;;;;;25.18;47.69;101558.16;5073676;27;45562;-65
2023/08/22 06:00:30;;;;;;;;;5.50;2.75;;;;;25.09;48.40;101559.41;5090312;27;45356;-63
2023/08/22 06:02:56;;;;;;;;;4.25;3.50;;;;;25.06;47.82;101554.22;5071996;27;45411;-61
2023/08/22 06:05:22;;;;;;;;;4.75;3.50;;;;;25.19;47.68;101565.25;5077082;27;45553;-71
2023/08/22 06:07:48;;;;;;;;;2.75;2.75;;;;;25.29;46.90;101577.28;5093629;27;47603;-62
2023/08/22 06:10:14;;;;;;;;;3.00;3.00;;;;;25.43;47.82;101579.34;5079145;27;45415;-62
2023/08/22 06:12:40;;;;;;;;;6.00;2.50;;;;;25.22;47.92;101554.38;5078162;27;45619;-62
2023/08/22 06:15:06;;;;;;;;;3.25;3.25;;;;;25.50;46.99;101594.19;5078107;27;45416;-61
2023/08/22 06:17:32;;;;;;;;;4.25;4.00;;;;;25.56;46.81;101587.69;5079383;27;46653;-61
2023/08/22 06:19:57;;;;;;;;;4.00;4.00;;;;;25.74;46.62;101600.19;5078793;27;45415;-69
2023/08/22 06:22:23;;;;;;;;;4.75;3.00;;;;;25.83;46.45;101608.78;5078446;27;45547;-62
2023/08/22 06:24:49;;;;;;;;;1.00;1.00;;;;;25.94;45.99;101618.06;5079691;27;45514;-63
2023/08/22 06:27:14;;;;;;;;;5.25;3.50;;;;;26.04;45.58;101610.44;5079803;27;46595;-63
2023/08/22 06:29:40;;;;;;;;;7.50;4.00;;;;;26.07;45.66;101604.91;5079606;27;45282;-61
2023/08/22 06:32:05;;;;;;;;;3.25;3.25;;;;;26.25;45.67;101610.34;5078414;27;45548;-65
2023/08/22 06:34:31;;;;;;;;;5.00;3.50;;;;;26.34;45.29;101610.75;5078877;27;45392;-72
2023/08/22 06:36:57;;;;;;;;;4.00;4.00;;;;;26.34;44.80;101607.16;5076772;28;45536;-62
2023/08/22 06:39:22;;;;;;;;;3.00;3.00;;;;;26.26;45.12;101595.94;5077829;27;45460;-68
2023/08/22 06:41:48;;;;;;;;;5.00;2.00;;;;;26.20;45.30;101595.31;5078017;27;45798;-61
2023/08/22 06:44:13;;;;;;;;;3.25;3.00;;;;;26.20;45.18;101602.50;5078384;27;45731;-62
2023/08/22 06:46:39;;;;;;;;;4.00;3.00;;;;;26.28;45.55;101599.44;5078118;27;45267;-63
2023/08/22 06:49:04;;;;;;;;;6.50;3.00;;;;;26.37;45.10;101593.59;5077820;27;45530;-61
2023/08/22 06:51:32;;;;;;;;;5.75;3.25;;;;;26.21;44.90;101562.13;5078065;27;45651;-62
2023/08/22 06:53:57;;;;;;;;;5.00;3.00;;;;;26.59;44.60;101596.09;5077783;27;45402;-62
2023/08/22 06:56:23;;;;;;;;;4.00;4.00;;;;;26.72;44.36;101596.31;5077280;27;46260;-63
2023/08/22 06:58:49;;;;;;;;;3.00;3.00;;;;;26.81;44.42;101591.34;5077339;27;45563;-63
2023/08/22 07:01:15;;;;;;;;;4.00;3.00;;;;;26.63;44.84;101582.41;5077795;27;45514;-61
2023/08/22 07:03:42;;;;;;;;;6.00;4.25;;;;;26.31;45.25;101577.78;5077765;27;45598;-62
2023/08/22 07:06:08;;;;;;;;;6.75;4.25;;;;;26.17;44.84;101603.53;5076444;27;46431;-62
2023/08/22 07:08:33;;;;;;;;;6.25;4.50;;;;;25.99;45.18;101602.63;5077595;27;45325;-61
2023/08/22 07:11:02;;;;;;;;;6.75;4.75;;;;;25.98;45.29;101608.94;5077603;27;45432;-63
2023/08/22 07:13:40;;;;;;;;;5.00;5.00;;;;;25.84;45.96;101591.72;5078178;27;45546;-61
2023/08/22 07:16:05;;;;;;;;;6.25;5.00;;;;;25.89;45.93;101603.13;5077640;27;47423;-62
2023/08/22 07:18:34;;;;;;;;;6.00;4.00;;;;;25.90;45.62;101599.50;5060094;28;45909;-62
2023/08/22 07:21:05;;;;;;;;;3.00;3.00;;;;;26.09;45.30;101599.47;5071912;27;45478;-60
2023/08/22 07:23:30;;;;;;;;;3.25;3.25;;;;;26.38;44.99;101609.63;5057199;27;45461;-62
2023/08/22 07:25:56;;;;;;;;;3.50;3.00;;;;;26.58;44.67;101611.34;5070733;27;45512;-63
2023/08/22 07:28:21;;;;;;;;;3.00;3.00;;;;;26.76;44.20;101603.25;5073890;28;45399;-62
2023/08/22 07:30:47;;;;;;;;;4.50;3.50;;;;;26.83;43.95;101605.53;5071195;27;45198;-62
2023/08/22 07:33:14;;;;;;;;;4.00;3.25;;;;;26.72;43.67;101573.00;5075664;27;45487;-66
2023/08/22 07:35:41;;;;;;;;;4.75;3.75;;;;;26.93;43.74;101599.69;5074282;27;45530;-62
2023/08/22 07:38:06;;;;;;;;;3.25;3.25;;;;;27.03;43.93;101600.94;5073405;27;45511;-65
2023/08/22 07:40:36;;;;;;;;;4.25;3.00;;;;;27.09;43.17;101600.59;5075065;28;45341;-64
2023/08/22 07:43:01;;;;;;;;;3.00;3.00;;;;;27.04;43.17;101592.78;5072696;27;45235;-65
2023/08/22 07:45:27;;;;;;;;;3.75;3.75;;;;;27.10;43.27;101579.97;5073819;27;46224;-68
2023/08/22 07:47:53;;;;;;;;;6.25;4.50;;;;;27.27;42.71;101593.41;5072218;27;45396;-61
2023/08/22 07:50:19;;;;;;;;;3.00;3.00;;;;;27.12;43.08;101589.66;5074388;27;45411;-66
2023/08/22 07:52:45;;;;;;;;;4.50;3.75;;;;;27.13;43.10;101610.25;5073994;27;45385;-61
2023/08/22 07:55:10;;;;;;;;;3.50;3.00;;;;;27.19;43.08;101614.41;5073255;27;46089;-63
2023/08/22 07:57:39;;;;;;;;;6.75;5.50;;;;;27.11;43.05;101565.56;5075094;27;45361;-61
2023/08/22 08:00:13;;;;;;;;;6.00;5.50;;;;;27.31;43.14;101586.88;5072389;27;45483;-65
2023/08/22 08:02:39;;;;;;;;;7.00;6.00;;;;;27.43;42.42;101591.63;5068648;27;45579;-67
2023/08/22 08:05:06;;;;;;;;;5.50;5.50;;;;;27.56;42.40;101596.31;5075240;27;46129;-62
2023/08/22 08:07:33;;;;;;;;;4.00;4.00;;;;;27.67;42.00;101604.66;5076630;27;45324;-62
2023/08/22 08:09:58;;;;;;;;;3.75;2.25;;;;;27.62;42.18;101582.50;5076731;27;45507;-63
2023/08/22 08:12:24;;;;;;;;;8.00;5.50;;;;;27.76;41.75;101601.41;5077313;27;45599;-62
2023/08/22 08:14:50;;;;;;;;;6.00;6.00;;;;;27.83;42.06;101615.44;5077255;27;45627;-62
2023/08/22 08:17:19;;;;;;;;;10.75;5.50;;;;;27.84;41.96;101623.44;5078808;27;45351;-62
2023/08/22 08:19:45;;;;;;;;;5.00;4.00;;;;;27.81;42.17;101620.00;5077783;28;45418;-63
2023/08/22 08:22:11;;;;;;;;;4.00;4.00;;;;;27.91;41.93;101618.56;5077899;27;45530;-63
2023/08/22 08:24:39;;;;;;;;;4.25;4.00;;;;;28.05;41.61;101615.09;5076475;27;45455;-72
2023/08/22 08:27:05;;;;;;;;;5.00;3.20;;;;;28.04;41.20;101614.22;5076853;27;45435;-69
2023/08/22 08:29:31;;;;;;;;;5.75;5.00;;;;;27.96;41.55;101618.31;5060965;27;45342;-65
2023/08/22 08:31:57;;;;;;;;;3.00;3.00;;;;;28.01;41.76;101618.91;5064790;28;45538;-64
2023/08/22 08:34:23;;;;;;;;;6.00;4.50;;;;;28.09;41.45;101622.03;5063684;27;45444;-65
2023/08/22 08:36:52;;;;;;;;;5.50;4.00;;;;;28.16;41.61;101626.09;5059450;27;45567;-64
2023/08/22 08:39:17;;;;;;;;;4.75;4.50;;;;;28.11;41.20;101614.72;5062847;27;45594;-62
2023/08/22 08:41:53;;;;;;;;;5.75;3.00;;;;;28.00;41.38;101609.09;5072740;27;46322;-66
2023/08/22 08:44:20;;;;;;;;;5.75;4.00;;;;;27.90;41.80;101600.66;5061856;27;46309;-65
2023/08/22 08:46:55;;;;;;;;;4.50;4.50;;;;;28.03;40.95;101603.53;5063387;27;45441;-67
2023/08/22 08:49:21;;;;;;;;;5.75;4.50;;;;;28.11;40.86;101614.72;5076113;27;45519;-64
2023/08/22 08:51:48;;;;;;;;;5.25;3.50;;;;;28.10;41.04;101618.38;5077066;28;45423;-67
2023/08/22 08:54:14;;;;;;;;;4.75;4.25;;;;;28.07;41.60;101597.00;5075279;27;45958;-62
2023/08/22 08:56:41;;;;;;;;;3.80;3.80;;;;;28.24;40.72;101621.16;5076524;27;45480;-63
2023/08/22 08:59:07;;;;;;;;;5.75;3.75;;;;;28.21;41.12;101605.16;5079437;27;45820;-63
2023/08/22 09:01:34;;;;;;;;;5.00;3.50;;;;;28.40;40.73;101615.69;5061794;27;45391;-64
2023/08/22 09:04:00;;;;;;;;;6.00;4.00;;;;;28.46;39.81;101606.44;5074619;27;46270;-64
2023/08/22 09:06:26;;;;;;;;;5.00;5.00;;;;;28.49;40.45;101606.25;5079884;27;45477;-63
2023/08/22 09:09:07;;;;;;;;;4.00;4.00;;;;;28.50;39.80;101591.84;5062209;27;45360;-63
2023/08/22 09:11:33;;;;;;;;;5.25;5.00;;;;;28.62;39.71;101601.88;5062066;27;45377;-63
2023/08/22 09:13:59;;;;;;;;;5.50;4.25;;;;;28.67;39.18;101602.44;5072637;27;45414;-64
2023/08/22 09:16:26;;;;;;;;;4.00;3.25;;;;;28.60;38.71;101606.47;5067230;27;45492;-63
2023/08/22 09:18:52;;;;;;;;;6.00;6.00;;;;;28.57;38.59;101606.69;5065900;27;46007;-64
2023/08/22 09:21:18;;;;;;;;;7.25;5.00;;;;;28.50;38.68;101591.84;5062682;27;45426;-62
2023/08/22 09:23:49;;;;;;;;;5.00;4.50;;;;;28.46;38.95;101595.66;5063630;27;46405;-62
2023/08/22 09:26:21;;;;;;;;;4.80;3.20;;;;;28.49;39.21;101604.41;5061211;28;45337;-63
2023/08/22 09:28:46;;;;;;;;;3.20;3.20;;;;;28.53;38.57;101602.41;5063461;27;45453;-62
2023/08/22 09:31:35;;;;;;;;;3.00;3.00;;;;;28.60;38.85;101593.00;5061851;27;45548;-61
2023/08/22 09:34:13;;;;;;;;;2.25;2.25;;;;;28.68;38.87;101595.22;5063118;27;45664;-61
2023/08/22 09:36:45;;;;;;;;;4.60;4.00;;;;;28.73;38.14;101596.69;5060136;27;45555;-60
2023/08/22 09:39:18;;;;;;;;;4.20;3.00;;;;;28.82;37.02;101595.25;5063289;27;45520;-60
2023/08/22 09:41:44;;;;;;;;;5.00;3.00;;;;;28.75;37.10;101586.66;5062502;27;45462;-61
2023/08/22 09:44:11;;;;;;;;;4.25;3.25;;;;;28.84;37.65;101585.25;5063132;27;46522;-61
2023/08/22 09:46:41;;;;;;;;;3.20;2.20;;;;;28.90;37.36;101581.28;5068425;28;45462;-62
2023/08/22 09:49:11;;;;;;;;;2.00;2.00;;;;;29.00;37.17;101597.75;5067031;27;45500;-62
2023/08/22 09:51:38;;;;;;;;;2.75;2.75;;;;;29.04;36.22;101586.69;5073795;27;45619;-61
2023/08/22 09:54:06;;;;;;;;;3.00;2.20;;;;;29.06;36.39;101578.53;5061671;27;45472;-61
2023/08/22 09:56:32;;;;;;;;;3.00;2.40;;;;;29.15;36.61;101589.63;5063795;27;45523;-60
2023/08/22 09:59:00;;;;;;;;;3.75;3.00;;;;;29.13;36.82;101588.84;5061360;27;45518;-63
2023/08/22 10:01:28;;;;;;;;;5.25;3.00;;;;;29.25;37.25;101592.59;5061785;27;45364;-62
2023/08/22 10:03:55;;;;;;;;;3.60;2.80;;;;;29.34;36.23;101583.06;5066679;27;46038;-64
2023/08/22 10:06:29;;;;;;;;;4.00;4.00;;;;;29.39;35.94;101591.75;5078589;27;45506;-63
2023/08/22 10:08:56;;;;;;;;;3.60;3.60;;;;;29.44;36.69;101596.84;5095288;27;45408;-62
2023/08/22 10:11:22;;;;;;;;;2.75;2.75;;;;;29.47;36.08;101581.34;5111802;27;45424;-63
2023/08/22 10:13:50;;;;;;;;;4.20;3.60;;;;;29.29;36.74;101533.94;5078098;27;46211;-62
2023/08/22 10:16:15;;;;;;;;;5.00;3.00;;;;;29.65;36.45;101579.25;5093327;27;45542;-64
2023/08/22 10:18:41;;;;;;;;;4.00;3.50;;;;;29.72;36.88;101579.75;5078286;27;45311;-62
2023/08/22 10:21:07;;;;;;;;;4.50;2.50;;;;;29.86;36.31;101579.72;5073174;27;45232;-63
2023/08/22 10:23:51;;;;;;;;;3.25;3.25;;;;;29.93;35.82;101575.66;5066316;27;48057;-62
2023/08/22 10:26:17;;;;;;;;;4.40;4.00;;;;;29.97;36.27;101570.88;5071903;27;45382;-63
2023/08/22 10:28:43;;;;;;;;;4.00;4.00;;;;;30.03;36.36;101567.78;5068553;28;45367;-62
2023/08/22 10:31:09;;;;;;;;;4.00;3.80;;;;;30.18;36.11;101572.19;5064463;27;46258;-63
2023/08/22 10:33:34;;;;;;;;;6.00;3.00;;;;;30.37;34.80;101576.34;5064825;27;45542;-65
2023/08/22 10:36:17;;;;;;;;;4.00;4.00;;;;;30.36;35.10;101574.63;5065444;27;45329;-65
2023/08/22 10:38:57;;;;;;;;;5.60;4.40;;;;;30.36;34.73;101572.78;5066204;27;45791;-62
2023/08/22 10:41:31;;;;;;;;;3.00;3.00;;;;;30.34;34.95;101571.16;5064653;27;45467;-62
2023/08/22 10:43:57;;;;;;;;;5.25;3.00;;;;;30.30;35.41;101562.41;5065996;27;46219;-63
2023/08/22 10:47:01;;;;;;;;;4.00;2.00;;;;;30.42;36.26;101558.88;5063862;27;45490;-61
2023/08/22 10:49:31;;;;;;;;;3.00;3.00;;;;;30.58;35.75;101564.06;5062456;27;45484;-65
2023/08/22 10:52:07;;;;;;;;;3.25;3.25;;;;;30.72;35.26;101560.38;5062828;27;45425;-64
2023/08/22 10:54:53;;;;;;;;;3.00;2.00;;;;;30.75;35.36;101549.38;5067773;27;45479;-66
2023/08/22 10:57:19;;;;;;;;;3.80;3.20;;;;;30.97;34.78;101556.00;5065434;27;45635;-66
2023/08/22 11:02:39;;;;;;;;;3.00;3.00;;;;;31.13;33.94;101555.75;5065842;28;45448;-62
2023/08/22 11:05:11;;;;;;;;;3.20;2.60;;;;;31.01;34.55;101552.97;5074563;27;46609;-65
2023/08/22 11:07:37;;;;;;;;;4.00;3.00;;;;;31.04;34.54;101549.19;5076774;27;45575;-69
2023/08/22 11:10:04;;;;;;;;;2.20;2.20;;;;;31.15;34.17;101551.09;5077714;27;45574;-68
2023/08/22 11:12:30;;;;;;;;;3.00;3.00;;;;;31.08;33.98;101536.28;5077470;27;45621;-62
2023/08/22 11:14:59;;;;;;;;;3.00;3.00;;;;;31.29;34.61;101561.78;5077189;27;46032;-64
2023/08/22 11:17:25;;;;;;;;;4.00;4.00;;;;;31.38;34.33;101544.88;5078353;27;45480;-63
2023/08/22 11:19:55;;;;;;;;;5.80;3.00;;;;;31.57;33.98;101554.38;5078347;27;45329;-63
2023/08/22 11:22:21;;;;;;;;;4.60;2.60;;;;;31.69;33.43;101550.75;5076741;27;45490;-61
2023/08/22 11:24:49;;;;;;;;;2.40;2.40;;;;;31.69;33.29;101529.09;5076857;27;46253;-63
2023/08/22 11:27:16;;;;;;;;;4.40;3.00;;;;;31.97;32.83;101546.03;5075394;27;45479;-65
2023/08/22 11:29:49;;;;;;;;;4.00;3.80;;;;;32.10;32.54;101549.50;5077855;27;45411;-62